sensor_id;sensor_type;location;lat;lon;timestamp;temperature;humidity
5924;DHT22;2987;50.884;14.818;2024-03-22T00:02:02;8.70;99.90
5924;DHT22;2987;50.884;14.818;2024-03-22T00:04:29;8.60;99.90
5924;DHT22;2987;50.884;14.818;2024-03-22T00:06:55;8.60;99.90
5924;DHT22;2987;50.884;14.818;2024-03-22T00:09:21;8.50;99.90
5924;DHT22;2987;50.884;14.818;2024-03-22T00:11:47;8.60;99.90
5924;DHT22;2987;50.884;14.818;2024-03-22T00:14:14;8.60;99.90
5924;DHT22;2987;50.884;14.818;2024-03-22T00:16:40;8.30;99.90
5924;DHT22;2987;50.884;14.818;2024-03-22T00:19:07;8.50;99.90
5924;DHT22;2987;50.884;14.818;2024-03-22T00:21:33;8.50;99.90
5924;DHT22;2987;50.884;14.818;2024-03-22T00:24:00;8.50;99.90
5924;DHT22;2987;50.884;14.818;2024-03-22T00:26:28;8.60;99.90
5924;DHT22;2987;50.884;14.818;2024-03-22T00:28:54;8.20;99.90
5924;DHT22;2987;50.884;14.818;2024-03-22T00:31:20;8.60;99.90
5924;DHT22;2987;50.884;14.818;2024-03-22T00:33:46;8.50;99.90
5924;DHT22;2987;50.884;14.818;2024-03-22T00:36:13;8.40;99.90
5924;DHT22;2987;50.884;14.818;2024-03-22T00:38:39;8.50;99.90
5924;DHT22;2987;50.884;14.818;2024-03-22T00:41:05;8.60;99.90
5924;DHT22;2987;50.884;14.818;2024-03-22T00:43:32;8.40;99.90
5924;DHT22;2987;50.884;14.818;2024-03-22T00:45:58;8.20;99.90
5924;DHT22;2987;50.884;14.818;2024-03-22T00:48:25;8.40;99.90
5924;DHT22;2987;50.884;14.818;2024-03-22T00:50:51;8.20;99.90
5924;DHT22;2987;50.884;14.818;2024-03-22T00:53:17;8.40;99.90
5924;DHT22;2987;50.884;14.818;2024-03-22T00:55:43;8.20;99.90
5924;DHT22;2987;50.884;14.818;2024-03-22T00:58:10;8.20;99.90
5924;DHT22;2987;50.884;14.818;2024-03-22T01:00:36;8.30;99.90
5924;DHT22;2987;50.884;14.818;2024-03-22T01:03:04;8.60;99.90
5924;DHT22;2987;50.884;14.818;2024-03-22T01:05:30;8.20;99.90
5924;DHT22;2987;50.884;14.818;2024-03-22T01:07:56;8.50;99.90
5924;DHT22;2987;50.884;14.818;2024-03-22T01:10:23;8.30;99.90
5924;DHT22;2987;50.884;14.818;2024-03-22T01:12:49;8.50;99.90
5924;DHT22;2987;50.884;14.818;2024-03-22T01:15:15;8.20;99.90
5924;DHT22;2987;50.884;14.818;2024-03-22T01:17:42;8.50;99.90
5924;DHT22;2987;50.884;14.818;2024-03-22T01:20:08;8.40;99.90
5924;DHT22;2987;50.884;14.818;2024-03-22T01:22:35;8.50;99.90
5924;DHT22;2987;50.884;14.818;2024-03-22T01:25:03;8.30;99.90
5924;DHT22;2987;50.884;14.818;2024-03-22T01:27:30;8.30;99.90
5924;DHT22;2987;50.884;14.818;2024-03-22T01:29:56;8.40;99.90
5924;DHT22;2987;50.884;14.818;2024-03-22T01:32:22;8.20;99.90
5924;DHT22;2987;50.884;14.818;2024-03-22T01:34:48;8.40;99.90
5924;DHT22;2987;50.884;14.818;2024-03-22T01:37:15;8.30;99.90
5924;DHT22;2987;50.884;14.818;2024-03-22T01:39:41;8.20;99.90
5924;DHT22;2987;50.884;14.818;2024-03-22T01:42:07;8.50;99.90
5924;DHT22;2987;50.884;14.818;2024-03-22T01:44:34;8.20;99.90
5924;DHT22;2987;50.884;14.818;2024-03-22T01:47:01;8.30;99.90
5924;DHT22;2987;50.884;14.818;2024-03-22T01:49:28;8.20;99.90
5924;DHT22;2987;50.884;14.818;2024-03-22T01:51:56;8.30;99.90
5924;DHT22;2987;50.884;14.818;2024-03-22T01:54:22;8.20;99.90
5924;DHT22;2987;50.884;14.818;2024-03-22T01:56:48;8.40;99.90
5924;DHT22;2987;50.884;14.818;2024-03-22T01:59:15;8.20;99.90
5924;DHT22;2987;50.884;14.818;2024-03-22T02:01:42;8.60;99.90
5924;DHT22;2987;50.884;14.818;2024-03-22T02:04:08;8.20;99.90
5924;DHT22;2987;50.884;14.818;2024-03-22T02:06:34;8.40;99.90
5924;DHT22;2987;50.884;14.818;2024-03-22T02:09:00;8.20;99.90
5924;DHT22;2987;50.884;14.818;2024-03-22T02:11:27;8.10;99.90
5924;DHT22;2987;50.884;14.818;2024-03-22T02:13:53;8.30;99.90
5924;DHT22;2987;50.884;14.818;2024-03-22T02:16:20;8.20;99.90
5924;DHT22;2987;50.884;14.818;2024-03-22T02:18:46;8.30;99.90
5924;DHT22;2987;50.884;14.818;2024-03-22T02:21:12;8.20;99.90
5924;DHT22;2987;50.884;14.818;2024-03-22T02:23:40;8.40;99.90
5924;DHT22;2987;50.884;14.818;2024-03-22T02:26:07;8.20;99.90
5924;DHT22;2987;50.884;14.818;2024-03-22T02:28:35;8.40;99.90
5924;DHT22;2987;50.884;14.818;2024-03-22T02:31:04;8.20;99.90
5924;DHT22;2987;50.884;14.818;2024-03-22T02:33:31;8.50;99.90
5924;DHT22;2987;50.884;14.818;2024-03-22T02:35:57;8.20;99.90
5924;DHT22;2987;50.884;14.818;2024-03-22T02:38:24;8.40;99.90
5924;DHT22;2987;50.884;14.818;2024-03-22T02:40:52;8.50;99.90
5924;DHT22;2987;50.884;14.818;2024-03-22T02:43:18;8.40;99.90
5924;DHT22;2987;50.884;14.818;2024-03-22T02:45:47;8.30;99.90
5924;DHT22;2987;50.884;14.818;2024-03-22T02:48:14;8.20;99.90
5924;DHT22;2987;50.884;14.818;2024-03-22T02:50:40;8.40;99.90
5924;DHT22;2987;50.884;14.818;2024-03-22T02:53:07;8.30;99.90
5924;DHT22;2987;50.884;14.818;2024-03-22T02:55:38;8.10;99.90
5924;DHT22;2987;50.884;14.818;2024-03-22T02:58:05;8.20;99.90
5924;DHT22;2987;50.884;14.818;2024-03-22T03:00:38;8.10;99.90
5924;DHT22;2987;50.884;14.818;2024-03-22T03:03:06;8.50;99.90
5924;DHT22;2987;50.884;14.818;2024-03-22T03:05:33;8.20;99.90
5924;DHT22;2987;50.884;14.818;2024-03-22T03:08:00;8.20;99.90
5924;DHT22;2987;50.884;14.818;2024-03-22T03:10:27;8.20;99.90
5924;DHT22;2987;50.884;14.818;2024-03-22T03:12:54;8.30;99.90
5924;DHT22;2987;50.884;14.818;2024-03-22T03:15:21;7.90;99.90
5924;DHT22;2987;50.884;14.818;2024-03-22T03:17:47;8.20;99.90
5924;DHT22;2987;50.884;14.818;2024-03-22T03:20:13;8.10;99.90
5924;DHT22;2987;50.884;14.818;2024-03-22T03:22:40;8.00;99.90
5924;DHT22;2987;50.884;14.818;2024-03-22T03:25:07;8.10;99.90
5924;DHT22;2987;50.884;14.818;2024-03-22T03:27:34;7.80;99.90
5924;DHT22;2987;50.884;14.818;2024-03-22T03:30:01;8.10;99.90
5924;DHT22;2987;50.884;14.818;2024-03-22T03:32:27;7.80;99.90
5924;DHT22;2987;50.884;14.818;2024-03-22T03:34:54;7.90;99.90
5924;DHT22;2987;50.884;14.818;2024-03-22T03:37:20;7.80;99.90
5924;DHT22;2987;50.884;14.818;2024-03-22T03:39:47;7.90;99.90
5924;DHT22;2987;50.884;14.818;2024-03-22T03:42:13;7.70;99.90
5924;DHT22;2987;50.884;14.818;2024-03-22T03:44:39;7.50;99.90
5924;DHT22;2987;50.884;14.818;2024-03-22T03:47:07;7.60;99.90
5924;DHT22;2987;50.884;14.818;2024-03-22T03:49:33;7.60;99.90
5924;DHT22;2987;50.884;14.818;2024-03-22T03:51:59;7.50;99.90
5924;DHT22;2987;50.884;14.818;2024-03-22T03:54:26;7.60;99.90
5924;DHT22;2987;50.884;14.818;2024-03-22T03:56:52;7.70;99.90
5924;DHT22;2987;50.884;14.818;2024-03-22T03:59:18;7.60;99.90
5924;DHT22;2987;50.884;14.818;2024-03-22T04:01:46;7.40;99.90
5924;DHT22;2987;50.884;14.818;2024-03-22T04:04:12;7.30;99.90
5924;DHT22;2987;50.884;14.818;2024-03-22T04:06:38;7.30;99.90
5924;DHT22;2987;50.884;14.818;2024-03-22T04:09:05;7.30;99.90
5924;DHT22;2987;50.884;14.818;2024-03-22T04:11:31;7.30;99.90
5924;DHT22;2987;50.884;14.818;2024-03-22T04:13:58;7.30;99.90
5924;DHT22;2987;50.884;14.818;2024-03-22T04:16:24;7.20;99.90
5924;DHT22;2987;50.884;14.818;2024-03-22T04:18:50;7.40;99.90
5924;DHT22;2987;50.884;14.818;2024-03-22T04:21:17;7.10;99.90
5924;DHT22;2987;50.884;14.818;2024-03-22T04:23:43;7.20;99.90
5924;DHT22;2987;50.884;14.818;2024-03-22T04:26:10;7.20;99.90
5924;DHT22;2987;50.884;14.818;2024-03-22T04:28:36;7.20;99.90
5924;DHT22;2987;50.884;14.818;2024-03-22T04:31:07;7.10;99.90
5924;DHT22;2987;50.884;14.818;2024-03-22T04:33:37;7.20;99.90
5924;DHT22;2987;50.884;14.818;2024-03-22T04:36:04;7.20;99.90
5924;DHT22;2987;50.884;14.818;2024-03-22T04:38:31;7.50;99.90
5924;DHT22;2987;50.884;14.818;2024-03-22T04:40:57;7.30;99.90
5924;DHT22;2987;50.884;14.818;2024-03-22T04:43:24;7.20;99.90
5924;DHT22;2987;50.884;14.818;2024-03-22T04:45:51;7.40;99.90
5924;DHT22;2987;50.884;14.818;2024-03-22T04:48:22;7.20;99.90
5924;DHT22;2987;50.884;14.818;2024-03-22T04:50:49;7.20;99.90
5924;DHT22;2987;50.884;14.818;2024-03-22T04:53:17;7.40;99.90
5924;DHT22;2987;50.884;14.818;2024-03-22T04:55:44;7.10;99.90
5924;DHT22;2987;50.884;14.818;2024-03-22T04:58:15;7.30;99.90
5924;DHT22;2987;50.884;14.818;2024-03-22T05:00:45;6.80;99.90
5924;DHT22;2987;50.884;14.818;2024-03-22T05:03:12;7.40;99.90
5924;DHT22;2987;50.884;14.818;2024-03-22T05:05:39;7.00;99.90
5924;DHT22;2987;50.884;14.818;2024-03-22T05:08:06;7.00;99.90
5924;DHT22;2987;50.884;14.818;2024-03-22T05:10:33;7.00;99.90
5924;DHT22;2987;50.884;14.818;2024-03-22T05:13:00;6.80;99.90
5924;DHT22;2987;50.884;14.818;2024-03-22T05:15:26;7.00;99.90
5924;DHT22;2987;50.884;14.818;2024-03-22T05:17:53;7.00;99.90
5924;DHT22;2987;50.884;14.818;2024-03-22T05:20:20;7.10;99.90
5924;DHT22;2987;50.884;14.818;2024-03-22T05:22:47;7.00;99.90
5924;DHT22;2987;50.884;14.818;2024-03-22T05:25:14;7.00;99.90
5924;DHT22;2987;50.884;14.818;2024-03-22T05:27:42;7.20;99.90
5924;DHT22;2987;50.884;14.818;2024-03-22T05:30:12;7.00;99.90
5924;DHT22;2987;50.884;14.818;2024-03-22T05:32:39;7.20;99.90
5924;DHT22;2987;50.884;14.818;2024-03-22T05:35:06;7.40;99.90
5924;DHT22;2987;50.884;14.818;2024-03-22T05:37:33;7.20;99.90
5924;DHT22;2987;50.884;14.818;2024-03-22T05:40:03;7.40;99.90
5924;DHT22;2987;50.884;14.818;2024-03-22T05:42:32;7.10;99.90
5924;DHT22;2987;50.884;14.818;2024-03-22T05:44:58;7.10;99.90
5924;DHT22;2987;50.884;14.818;2024-03-22T05:47:25;7.30;99.90
5924;DHT22;2987;50.884;14.818;2024-03-22T05:49:51;7.20;99.90
5924;DHT22;2987;50.884;14.818;2024-03-22T05:52:18;7.40;99.90
5924;DHT22;2987;50.884;14.818;2024-03-22T05:54:45;7.80;99.90
5924;DHT22;2987;50.884;14.818;2024-03-22T05:57:11;7.60;99.90
5924;DHT22;2987;50.884;14.818;2024-03-22T05:59:37;7.60;99.90
5924;DHT22;2987;50.884;14.818;2024-03-22T06:02:05;7.60;99.90
5924;DHT22;2987;50.884;14.818;2024-03-22T06:04:31;7.60;99.90
5924;DHT22;2987;50.884;14.818;2024-03-22T06:06:57;7.80;99.90
5924;DHT22;2987;50.884;14.818;2024-03-22T06:09:29;7.60;99.90
5924;DHT22;2987;50.884;14.818;2024-03-22T06:12:15;7.60;99.90
5924;DHT22;2987;50.884;14.818;2024-03-22T06:14:42;7.80;99.90
5924;DHT22;2987;50.884;14.818;2024-03-22T06:17:12;8.20;99.90
5924;DHT22;2987;50.884;14.818;2024-03-22T06:19:40;8.10;99.90
5924;DHT22;2987;50.884;14.818;2024-03-22T06:22:06;8.00;99.90
5924;DHT22;2987;50.884;14.818;2024-03-22T06:24:32;8.20;99.90
5924;DHT22;2987;50.884;14.818;2024-03-22T06:26:59;8.30;99.90
5924;DHT22;2987;50.884;14.818;2024-03-22T06:29:25;8.60;99.90
5924;DHT22;2987;50.884;14.818;2024-03-22T06:31:51;8.50;99.90
5924;DHT22;2987;50.884;14.818;2024-03-22T06:34:18;8.60;99.90
5924;DHT22;2987;50.884;14.818;2024-03-22T06:36:44;8.50;99.90
5924;DHT22;2987;50.884;14.818;2024-03-22T06:39:10;8.80;99.90
5924;DHT22;2987;50.884;14.818;2024-03-22T06:41:37;9.20;99.90
5924;DHT22;2987;50.884;14.818;2024-03-22T06:44:03;9.30;99.90
5924;DHT22;2987;50.884;14.818;2024-03-22T06:46:29;9.50;99.90
5924;DHT22;2987;50.884;14.818;2024-03-22T06:48:58;9.40;99.90
5924;DHT22;2987;50.884;14.818;2024-03-22T06:51:24;9.50;99.90
5924;DHT22;2987;50.884;14.818;2024-03-22T06:53:50;9.60;99.90
5924;DHT22;2987;50.884;14.818;2024-03-22T06:56:17;9.90;99.90
5924;DHT22;2987;50.884;14.818;2024-03-22T06:58:44;9.90;99.90
5924;DHT22;2987;50.884;14.818;2024-03-22T07:01:10;10.20;99.90
5924;DHT22;2987;50.884;14.818;2024-03-22T07:03:36;10.40;99.90
5924;DHT22;2987;50.884;14.818;2024-03-22T07:06:02;10.80;99.90
5924;DHT22;2987;50.884;14.818;2024-03-22T07:08:29;10.90;99.90
5924;DHT22;2987;50.884;14.818;2024-03-22T07:10:55;11.00;99.90
5924;DHT22;2987;50.884;14.818;2024-03-22T07:13:21;11.00;99.90
5924;DHT22;2987;50.884;14.818;2024-03-22T07:15:48;11.00;99.90
5924;DHT22;2987;50.884;14.818;2024-03-22T07:18:15;10.90;99.90
5924;DHT22;2987;50.884;14.818;2024-03-22T07:20:42;10.90;99.90
5924;DHT22;2987;50.884;14.818;2024-03-22T07:23:09;10.90;99.90
5924;DHT22;2987;50.884;14.818;2024-03-22T07:25:35;10.80;99.90
5924;DHT22;2987;50.884;14.818;2024-03-22T07:28:01;10.60;99.90
5924;DHT22;2987;50.884;14.818;2024-03-22T07:30:27;10.60;99.90
5924;DHT22;2987;50.884;14.818;2024-03-22T07:32:54;10.60;99.90
5924;DHT22;2987;50.884;14.818;2024-03-22T07:35:20;10.60;99.90
5924;DHT22;2987;50.884;14.818;2024-03-22T07:37:46;10.50;99.90
5924;DHT22;2987;50.884;14.818;2024-03-22T07:40:12;11.00;99.90
5924;DHT22;2987;50.884;14.818;2024-03-22T07:42:39;10.60;99.90
5924;DHT22;2987;50.884;14.818;2024-03-22T07:45:05;10.70;99.90
5924;DHT22;2987;50.884;14.818;2024-03-22T07:47:31;10.90;99.90
5924;DHT22;2987;50.884;14.818;2024-03-22T07:49:58;10.90;99.90
5924;DHT22;2987;50.884;14.818;2024-03-22T07:52:24;11.10;99.90
5924;DHT22;2987;50.884;14.818;2024-03-22T07:54:50;11.20;99.90
5924;DHT22;2987;50.884;14.818;2024-03-22T07:57:17;11.30;99.90
5924;DHT22;2987;50.884;14.818;2024-03-22T07:59:43;11.30;99.90
5924;DHT22;2987;50.884;14.818;2024-03-22T08:02:10;11.30;99.90
5924;DHT22;2987;50.884;14.818;2024-03-22T08:04:36;11.40;99.90
5924;DHT22;2987;50.884;14.818;2024-03-22T08:07:03;11.60;99.90
5924;DHT22;2987;50.884;14.818;2024-03-22T08:09:29;11.60;99.90
5924;DHT22;2987;50.884;14.818;2024-03-22T08:11:55;11.70;99.90
5924;DHT22;2987;50.884;14.818;2024-03-22T08:14:22;11.70;99.90
5924;DHT22;2987;50.884;14.818;2024-03-22T08:16:48;11.70;99.90
5924;DHT22;2987;50.884;14.818;2024-03-22T08:19:14;11.70;99.90
5924;DHT22;2987;50.884;14.818;2024-03-22T08:21:40;11.70;99.90
5924;DHT22;2987;50.884;14.818;2024-03-22T08:24:06;11.60;99.90
5924;DHT22;2987;50.884;14.818;2024-03-22T08:26:33;11.80;99.90
5924;DHT22;2987;50.884;14.818;2024-03-22T08:28:59;11.50;99.90
5924;DHT22;2987;50.884;14.818;2024-03-22T08:31:25;11.40;99.90
5924;DHT22;2987;50.884;14.818;2024-03-22T08:33:54;11.40;99.90
5924;DHT22;2987;50.884;14.818;2024-03-22T08:36:22;11.40;99.90
5924;DHT22;2987;50.884;14.818;2024-03-22T08:38:49;11.40;99.90
5924;DHT22;2987;50.884;14.818;2024-03-22T08:41:16;11.30;99.90
5924;DHT22;2987;50.884;14.818;2024-03-22T08:43:42;11.40;99.90
5924;DHT22;2987;50.884;14.818;2024-03-22T08:46:08;11.40;99.90
5924;DHT22;2987;50.884;14.818;2024-03-22T08:48:34;11.50;99.90
5924;DHT22;2987;50.884;14.818;2024-03-22T08:51:00;11.60;99.90
5924;DHT22;2987;50.884;14.818;2024-03-22T08:53:27;11.70;99.90
5924;DHT22;2987;50.884;14.818;2024-03-22T08:55:54;11.80;99.90
5924;DHT22;2987;50.884;14.818;2024-03-22T08:58:20;11.90;99.90
5924;DHT22;2987;50.884;14.818;2024-03-22T09:00:46;11.90;99.90
5924;DHT22;2987;50.884;14.818;2024-03-22T09:03:12;12.00;99.90
5924;DHT22;2987;50.884;14.818;2024-03-22T09:05:41;12.10;99.90
5924;DHT22;2987;50.884;14.818;2024-03-22T09:08:07;12.20;99.90
5924;DHT22;2987;50.884;14.818;2024-03-22T09:10:33;12.30;99.90
5924;DHT22;2987;50.884;14.818;2024-03-22T09:12:59;12.40;99.90
5924;DHT22;2987;50.884;14.818;2024-03-22T09:15:25;12.40;99.90
5924;DHT22;2987;50.884;14.818;2024-03-22T09:17:52;12.40;99.90
5924;DHT22;2987;50.884;14.818;2024-03-22T09:20:18;12.50;99.90
5924;DHT22;2987;50.884;14.818;2024-03-22T09:22:45;12.50;99.90
5924;DHT22;2987;50.884;14.818;2024-03-22T09:25:11;12.60;99.90
5924;DHT22;2987;50.884;14.818;2024-03-22T09:27:38;12.70;99.90
5924;DHT22;2987;50.884;14.818;2024-03-22T09:30:05;12.70;99.90
5924;DHT22;2987;50.884;14.818;2024-03-22T09:32:31;12.80;99.90
5924;DHT22;2987;50.884;14.818;2024-03-22T09:34:57;12.70;99.90
5924;DHT22;2987;50.884;14.818;2024-03-22T09:37:23;12.70;99.90
5924;DHT22;2987;50.884;14.818;2024-03-22T09:39:50;12.50;99.90
5924;DHT22;2987;50.884;14.818;2024-03-22T09:42:17;12.50;99.90
5924;DHT22;2987;50.884;14.818;2024-03-22T09:44:47;12.60;99.90
5924;DHT22;2987;50.884;14.818;2024-03-22T09:47:20;12.50;99.90
5924;DHT22;2987;50.884;14.818;2024-03-22T09:49:47;12.50;99.90
5924;DHT22;2987;50.884;14.818;2024-03-22T09:52:16;12.50;99.90
5924;DHT22;2987;50.884;14.818;2024-03-22T09:54:45;12.60;99.90
5924;DHT22;2987;50.884;14.818;2024-03-22T09:57:15;12.60;99.90
5924;DHT22;2987;50.884;14.818;2024-03-22T09:59:42;12.80;99.90
5924;DHT22;2987;50.884;14.818;2024-03-22T10:02:11;12.80;99.90
5924;DHT22;2987;50.884;14.818;2024-03-22T10:04:39;12.90;99.90
5924;DHT22;2987;50.884;14.818;2024-03-22T10:07:05;13.00;99.90
5924;DHT22;2987;50.884;14.818;2024-03-22T10:09:32;13.10;99.90
5924;DHT22;2987;50.884;14.818;2024-03-22T10:11:58;13.20;99.90
5924;DHT22;2987;50.884;14.818;2024-03-22T10:14:25;13.30;99.90
5924;DHT22;2987;50.884;14.818;2024-03-22T10:16:53;13.30;99.90
5924;DHT22;2987;50.884;14.818;2024-03-22T10:19:22;13.50;99.90
5924;DHT22;2987;50.884;14.818;2024-03-22T10:22:09;13.60;99.90
5924;DHT22;2987;50.884;14.818;2024-03-22T10:24:35;13.70;99.90
5924;DHT22;2987;50.884;14.818;2024-03-22T10:27:01;13.90;99.90
5924;DHT22;2987;50.884;14.818;2024-03-22T10:29:28;13.80;99.90
5924;DHT22;2987;50.884;14.818;2024-03-22T10:31:55;13.60;99.90
5924;DHT22;2987;50.884;14.818;2024-03-22T10:34:22;13.60;99.90
5924;DHT22;2987;50.884;14.818;2024-03-22T10:36:49;13.60;99.90
5924;DHT22;2987;50.884;14.818;2024-03-22T10:39:17;13.70;99.90
5924;DHT22;2987;50.884;14.818;2024-03-22T10:41:48;13.80;99.90
5924;DHT22;2987;50.884;14.818;2024-03-22T10:44:15;13.90;99.90
5924;DHT22;2987;50.884;14.818;2024-03-22T10:46:46;13.90;99.90
5924;DHT22;2987;50.884;14.818;2024-03-22T10:49:18;14.00;99.90
5924;DHT22;2987;50.884;14.818;2024-03-22T10:51:48;14.00;99.90
5924;DHT22;2987;50.884;14.818;2024-03-22T10:54:20;14.10;99.90
5924;DHT22;2987;50.884;14.818;2024-03-22T10:56:48;14.10;99.90
5924;DHT22;2987;50.884;14.818;2024-03-22T10:59:19;14.00;99.90
5924;DHT22;2987;50.884;14.818;2024-03-22T11:01:46;14.00;99.90
5924;DHT22;2987;50.884;14.818;2024-03-22T11:04:14;14.00;99.90
5924;DHT22;2987;50.884;14.818;2024-03-22T11:06:41;13.90;99.90
5924;DHT22;2987;50.884;14.818;2024-03-22T11:09:34;13.80;99.90
5924;DHT22;2987;50.884;14.818;2024-03-22T11:12:01;13.60;99.90
5924;DHT22;2987;50.884;14.818;2024-03-22T11:14:27;13.60;99.90
5924;DHT22;2987;50.884;14.818;2024-03-22T11:16:54;13.60;99.90
5924;DHT22;2987;50.884;14.818;2024-03-22T11:19:21;13.60;99.90
5924;DHT22;2987;50.884;14.818;2024-03-22T11:21:47;13.60;99.90
5924;DHT22;2987;50.884;14.818;2024-03-22T11:24:13;13.60;99.90
5924;DHT22;2987;50.884;14.818;2024-03-22T11:26:39;13.60;99.90
5924;DHT22;2987;50.884;14.818;2024-03-22T11:29:05;13.60;99.90
5924;DHT22;2987;50.884;14.818;2024-03-22T11:31:32;13.60;99.90
5924;DHT22;2987;50.884;14.818;2024-03-22T11:33:58;13.70;99.90
5924;DHT22;2987;50.884;14.818;2024-03-22T11:36:26;13.80;99.90
5924;DHT22;2987;50.884;14.818;2024-03-22T11:38:52;13.90;99.90
5924;DHT22;2987;50.884;14.818;2024-03-22T11:41:27;13.90;99.90
5924;DHT22;2987;50.884;14.818;2024-03-22T11:43:55;13.90;99.90
5924;DHT22;2987;50.884;14.818;2024-03-22T11:46:24;13.80;99.90
5924;DHT22;2987;50.884;14.818;2024-03-22T11:48:54;13.70;99.90
5924;DHT22;2987;50.884;14.818;2024-03-22T11:51:21;13.70;99.90
5924;DHT22;2987;50.884;14.818;2024-03-22T11:53:51;13.90;99.90
5924;DHT22;2987;50.884;14.818;2024-03-22T11:56:19;13.90;99.90
5924;DHT22;2987;50.884;14.818;2024-03-22T11:58:49;14.00;99.90
5924;DHT22;2987;50.884;14.818;2024-03-22T12:01:18;14.10;99.90
5924;DHT22;2987;50.884;14.818;2024-03-22T12:03:47;14.20;99.90
5924;DHT22;2987;50.884;14.818;2024-03-22T12:06:15;14.20;99.90
5924;DHT22;2987;50.884;14.818;2024-03-22T12:08:41;14.30;99.90
5924;DHT22;2987;50.884;14.818;2024-03-22T12:11:08;14.40;99.90
5924;DHT22;2987;50.884;14.818;2024-03-22T12:13:35;14.30;99.90
5924;DHT22;2987;50.884;14.818;2024-03-22T12:16:03;14.30;99.90
5924;DHT22;2987;50.884;14.818;2024-03-22T12:18:29;14.30;99.90
5924;DHT22;2987;50.884;14.818;2024-03-22T12:20:55;14.40;99.90
5924;DHT22;2987;50.884;14.818;2024-03-22T12:23:22;14.40;99.90
5924;DHT22;2987;50.884;14.818;2024-03-22T12:25:49;14.30;99.90
5924;DHT22;2987;50.884;14.818;2024-03-22T12:28:15;14.30;99.90
5924;DHT22;2987;50.884;14.818;2024-03-22T12:30:42;14.40;99.90
5924;DHT22;2987;50.884;14.818;2024-03-22T12:33:09;14.40;99.90
5924;DHT22;2987;50.884;14.818;2024-03-22T12:35:40;14.40;99.90
5924;DHT22;2987;50.884;14.818;2024-03-22T12:38:07;14.30;99.90
5924;DHT22;2987;50.884;14.818;2024-03-22T12:40:37;14.40;99.90
5924;DHT22;2987;50.884;14.818;2024-03-22T12:43:04;14.40;99.90
5924;DHT22;2987;50.884;14.818;2024-03-22T12:45:30;14.50;99.90
5924;DHT22;2987;50.884;14.818;2024-03-22T12:47:56;14.70;99.90
5924;DHT22;2987;50.884;14.818;2024-03-22T12:50:23;14.80;99.90
5924;DHT22;2987;50.884;14.818;2024-03-22T12:52:49;15.00;99.90
5924;DHT22;2987;50.884;14.818;2024-03-22T12:55:17;15.10;99.90
5924;DHT22;2987;50.884;14.818;2024-03-22T12:57:44;15.20;99.90
5924;DHT22;2987;50.884;14.818;2024-03-22T13:00:11;15.20;99.90
5924;DHT22;2987;50.884;14.818;2024-03-22T13:02:47;15.40;99.90
5924;DHT22;2987;50.884;14.818;2024-03-22T13:05:14;15.40;99.90
5924;DHT22;2987;50.884;14.818;2024-03-22T13:07:41;15.50;99.90
5924;DHT22;2987;50.884;14.818;2024-03-22T13:10:08;15.50;99.90
5924;DHT22;2987;50.884;14.818;2024-03-22T13:12:35;15.40;99.90
5924;DHT22;2987;50.884;14.818;2024-03-22T13:15:01;15.40;99.90
5924;DHT22;2987;50.884;14.818;2024-03-22T13:17:28;15.40;99.90
5924;DHT22;2987;50.884;14.818;2024-03-22T13:19:54;15.40;99.90
5924;DHT22;2987;50.884;14.818;2024-03-22T13:22:20;15.40;99.90
5924;DHT22;2987;50.884;14.818;2024-03-22T13:24:47;15.40;99.90
5924;DHT22;2987;50.884;14.818;2024-03-22T13:27:14;15.40;99.90
5924;DHT22;2987;50.884;14.818;2024-03-22T13:29:40;15.50;99.90
5924;DHT22;2987;50.884;14.818;2024-03-22T13:32:06;15.50;99.90
5924;DHT22;2987;50.884;14.818;2024-03-22T13:34:34;15.50;99.90
5924;DHT22;2987;50.884;14.818;2024-03-22T13:37:01;15.50;99.90
5924;DHT22;2987;50.884;14.818;2024-03-22T13:39:27;15.50;99.90
5924;DHT22;2987;50.884;14.818;2024-03-22T13:41:57;15.40;99.90
5924;DHT22;2987;50.884;14.818;2024-03-22T13:44:24;15.30;99.90
5924;DHT22;2987;50.884;14.818;2024-03-22T13:46:53;15.30;99.90
5924;DHT22;2987;50.884;14.818;2024-03-22T13:49:20;15.40;99.90
5924;DHT22;2987;50.884;14.818;2024-03-22T13:51:49;15.40;99.90
5924;DHT22;2987;50.884;14.818;2024-03-22T13:54:15;15.40;99.90
5924;DHT22;2987;50.884;14.818;2024-03-22T13:56:42;15.40;99.90
5924;DHT22;2987;50.884;14.818;2024-03-22T13:59:08;15.40;99.90
5924;DHT22;2987;50.884;14.818;2024-03-22T14:01:35;15.40;99.90
5924;DHT22;2987;50.884;14.818;2024-03-22T14:04:05;15.40;99.90
5924;DHT22;2987;50.884;14.818;2024-03-22T14:06:32;15.30;99.90
5924;DHT22;2987;50.884;14.818;2024-03-22T14:08:59;15.30;99.90
5924;DHT22;2987;50.884;14.818;2024-03-22T14:11:30;15.30;99.90
5924;DHT22;2987;50.884;14.818;2024-03-22T14:14:00;15.30;99.90
5924;DHT22;2987;50.884;14.818;2024-03-22T14:16:26;15.20;99.90
5924;DHT22;2987;50.884;14.818;2024-03-22T14:18:52;15.20;99.90
5924;DHT22;2987;50.884;14.818;2024-03-22T14:21:19;15.10;99.90
5924;DHT22;2987;50.884;14.818;2024-03-22T14:23:46;15.10;99.90
5924;DHT22;2987;50.884;14.818;2024-03-22T14:26:13;15.10;99.90
5924;DHT22;2987;50.884;14.818;2024-03-22T14:28:40;15.10;99.90
5924;DHT22;2987;50.884;14.818;2024-03-22T14:31:07;15.10;99.90
5924;DHT22;2987;50.884;14.818;2024-03-22T14:33:37;15.20;99.90
5924;DHT22;2987;50.884;14.818;2024-03-22T14:36:04;15.20;99.90
5924;DHT22;2987;50.884;14.818;2024-03-22T14:38:31;15.30;99.90
5924;DHT22;2987;50.884;14.818;2024-03-22T14:40:58;15.30;99.90
5924;DHT22;2987;50.884;14.818;2024-03-22T14:43:25;15.30;99.90
5924;DHT22;2987;50.884;14.818;2024-03-22T14:45:53;15.30;99.90
5924;DHT22;2987;50.884;14.818;2024-03-22T14:48:23;15.40;99.90
5924;DHT22;2987;50.884;14.818;2024-03-22T14:50:50;15.40;99.90
5924;DHT22;2987;50.884;14.818;2024-03-22T14:53:24;15.40;99.90
5924;DHT22;2987;50.884;14.818;2024-03-22T14:55:54;15.40;99.90
5924;DHT22;2987;50.884;14.818;2024-03-22T14:58:25;15.30;99.90
5924;DHT22;2987;50.884;14.818;2024-03-22T15:00:56;15.20;99.90
5924;DHT22;2987;50.884;14.818;2024-03-22T15:03:23;15.20;99.90
5924;DHT22;2987;50.884;14.818;2024-03-22T15:05:54;15.10;99.90
5924;DHT22;2987;50.884;14.818;2024-03-22T15:08:21;15.10;99.90
5924;DHT22;2987;50.884;14.818;2024-03-22T15:10:48;15.00;99.90
5924;DHT22;2987;50.884;14.818;2024-03-22T15:13:16;15.00;99.90
5924;DHT22;2987;50.884;14.818;2024-03-22T15:15:56;14.90;99.90
5924;DHT22;2987;50.884;14.818;2024-03-22T15:18:22;14.90;99.90
5924;DHT22;2987;50.884;14.818;2024-03-22T15:20:49;14.90;99.90
5924;DHT22;2987;50.884;14.818;2024-03-22T15:23:17;14.90;99.90
5924;DHT22;2987;50.884;14.818;2024-03-22T15:25:46;14.90;99.90
5924;DHT22;2987;50.884;14.818;2024-03-22T15:28:13;14.90;99.90
5924;DHT22;2987;50.884;14.818;2024-03-22T15:30:40;14.90;99.90
5924;DHT22;2987;50.884;14.818;2024-03-22T15:33:08;14.80;99.90
5924;DHT22;2987;50.884;14.818;2024-03-22T15:35:35;14.80;99.90
5924;DHT22;2987;50.884;14.818;2024-03-22T15:38:01;14.70;99.90
5924;DHT22;2987;50.884;14.818;2024-03-22T15:40:30;14.70;99.90
5924;DHT22;2987;50.884;14.818;2024-03-22T15:43:00;14.70;99.90
5924;DHT22;2987;50.884;14.818;2024-03-22T15:45:26;14.70;99.90
5924;DHT22;2987;50.884;14.818;2024-03-22T15:47:53;14.70;99.90
5924;DHT22;2987;50.884;14.818;2024-03-22T15:50:19;14.70;99.90
5924;DHT22;2987;50.884;14.818;2024-03-22T15:52:46;14.70;99.90